sensor_id;sensor_type;location;lat;lon;timestamp;temperature;humidity
32502;DHT22;18952;52.516;13.460;2023-03-14T00:01:44;11.40;99.90
32502;DHT22;18952;52.516;13.460;2023-03-14T00:04:10;11.30;99.90
32502;DHT22;18952;52.516;13.460;2023-03-14T00:06:37;11.30;99.90
32502;DHT22;18952;52.516;13.460;2023-03-14T00:09:04;11.30;99.90
32502;DHT22;18952;52.516;13.460;2023-03-14T00:11:31;11.20;99.90
32502;DHT22;18952;52.516;13.460;2023-03-14T00:13:58;11.20;99.90
32502;DHT22;18952;52.516;13.460;2023-03-14T00:16:27;11.20;99.90
32502;DHT22;18952;52.516;13.460;2023-03-14T00:18:56;11.20;99.90
32502;DHT22;18952;52.516;13.460;2023-03-14T00:21:24;11.10;99.90
32502;DHT22;18952;52.516;13.460;2023-03-14T00:23:51;11.10;99.90
32502;DHT22;18952;52.516;13.460;2023-03-14T00:26:20;11.10;99.90
32502;DHT22;18952;52.516;13.460;2023-03-14T00:28:51;11.00;99.90
32502;DHT22;18952;52.516;13.460;2023-03-14T00:31:18;11.00;99.90
32502;DHT22;18952;52.516;13.460;2023-03-14T00:33:45;10.90;99.90
32502;DHT22;18952;52.516;13.460;2023-03-14T00:36:17;10.90;99.90
32502;DHT22;18952;52.516;13.460;2023-03-14T00:38:45;10.90;99.90
32502;DHT22;18952;52.516;13.460;2023-03-14T00:41:14;10.90;99.90
32502;DHT22;18952;52.516;13.460;2023-03-14T00:43:41;10.80;99.90
32502;DHT22;18952;52.516;13.460;2023-03-14T00:46:09;10.80;99.90
32502;DHT22;18952;52.516;13.460;2023-03-14T00:48:36;10.80;99.90
32502;DHT22;18952;52.516;13.460;2023-03-14T00:51:04;10.80;99.90
32502;DHT22;18952;52.516;13.460;2023-03-14T00:53:35;10.70;99.90
32502;DHT22;18952;52.516;13.460;2023-03-14T00:56:08;10.70;99.90
32502;DHT22;18952;52.516;13.460;2023-03-14T00:58:35;10.70;99.90
32502;DHT22;18952;52.516;13.460;2023-03-14T01:01:23;10.70;99.90
32502;DHT22;18952;52.516;13.460;2023-03-14T01:03:54;10.60;99.90
32502;DHT22;18952;52.516;13.460;2023-03-14T01:06:26;10.60;99.90
32502;DHT22;18952;52.516;13.460;2023-03-14T01:08:57;10.60;99.90
32502;DHT22;18952;52.516;13.460;2023-03-14T01:11:33;10.50;99.90
32502;DHT22;18952;52.516;13.460;2023-03-14T01:14:01;10.50;99.90
32502;DHT22;18952;52.516;13.460;2023-03-14T01:16:30;10.50;99.90
32502;DHT22;18952;52.516;13.460;2023-03-14T01:18:57;10.50;99.90
32502;DHT22;18952;52.516;13.460;2023-03-14T01:21:27;10.40;99.90
32502;DHT22;18952;52.516;13.460;2023-03-14T01:23:56;10.40;99.90
32502;DHT22;18952;52.516;13.460;2023-03-14T01:26:25;10.40;99.90
32502;DHT22;18952;52.516;13.460;2023-03-14T01:28:54;10.40;99.90
32502;DHT22;18952;52.516;13.460;2023-03-14T01:31:21;10.40;99.90
32502;DHT22;18952;52.516;13.460;2023-03-14T01:33:48;10.40;99.90
32502;DHT22;18952;52.516;13.460;2023-03-14T01:36:15;10.30;99.90
32502;DHT22;18952;52.516;13.460;2023-03-14T01:38:42;10.40;99.90
32502;DHT22;18952;52.516;13.460;2023-03-14T01:41:23;10.40;99.90
32502;DHT22;18952;52.516;13.460;2023-03-14T01:43:50;10.40;99.90
32502;DHT22;18952;52.516;13.460;2023-03-14T01:46:22;10.40;99.90
32502;DHT22;18952;52.516;13.460;2023-03-14T01:51:47;10.40;99.90
32502;DHT22;18952;52.516;13.460;2023-03-14T01:59:31;10.50;99.90
32502;DHT22;18952;52.516;13.460;2023-03-14T02:01:59;10.50;99.90
32502;DHT22;18952;52.516;13.460;2023-03-14T02:04:29;10.50;99.90
32502;DHT22;18952;52.516;13.460;2023-03-14T02:07:08;10.50;99.90
32502;DHT22;18952;52.516;13.460;2023-03-14T02:09:38;10.50;99.90
32502;DHT22;18952;52.516;13.460;2023-03-14T02:12:06;10.40;99.90
32502;DHT22;18952;52.516;13.460;2023-03-14T02:14:37;10.40;99.90
32502;DHT22;18952;52.516;13.460;2023-03-14T02:17:05;10.40;99.90
32502;DHT22;18952;52.516;13.460;2023-03-14T02:20:10;10.40;99.90
32502;DHT22;18952;52.516;13.460;2023-03-14T02:22:42;10.40;99.90
32502;DHT22;18952;52.516;13.460;2023-03-14T02:27:39;10.30;99.90
32502;DHT22;18952;52.516;13.460;2023-03-14T02:30:12;10.30;99.90
32502;DHT22;18952;52.516;13.460;2023-03-14T02:32:43;10.30;99.90
32502;DHT22;18952;52.516;13.460;2023-03-14T02:35:20;10.30;99.90
32502;DHT22;18952;52.516;13.460;2023-03-14T02:37:48;10.30;99.90
32502;DHT22;18952;52.516;13.460;2023-03-14T02:40:17;10.30;99.90
32502;DHT22;18952;52.516;13.460;2023-03-14T02:42:45;10.30;99.90
32502;DHT22;18952;52.516;13.460;2023-03-14T02:47:46;10.30;99.90
32502;DHT22;18952;52.516;13.460;2023-03-14T02:50:17;10.30;99.90
32502;DHT22;18952;52.516;13.460;2023-03-14T02:52:45;10.30;99.90
32502;DHT22;18952;52.516;13.460;2023-03-14T02:55:12;10.30;99.90
32502;DHT22;18952;52.516;13.460;2023-03-14T02:57:39;10.30;99.90
32502;DHT22;18952;52.516;13.460;2023-03-14T03:00:07;10.30;99.90
32502;DHT22;18952;52.516;13.460;2023-03-14T03:02:33;10.30;99.90
32502;DHT22;18952;52.516;13.460;2023-03-14T03:05:01;10.30;99.90
32502;DHT22;18952;52.516;13.460;2023-03-14T03:07:27;10.20;99.90
32502;DHT22;18952;52.516;13.460;2023-03-14T03:09:54;10.20;99.90
32502;DHT22;18952;52.516;13.460;2023-03-14T03:12:21;10.20;99.90
32502;DHT22;18952;52.516;13.460;2023-03-14T03:14:48;10.20;99.90
32502;DHT22;18952;52.516;13.460;2023-03-14T03:17:15;10.20;99.90
32502;DHT22;18952;52.516;13.460;2023-03-14T03:19:44;10.20;99.90
32502;DHT22;18952;52.516;13.460;2023-03-14T03:22:11;10.20;99.90
32502;DHT22;18952;52.516;13.460;2023-03-14T03:24:38;10.10;99.90
32502;DHT22;18952;52.516;13.460;2023-03-14T03:27:05;10.10;99.90
32502;DHT22;18952;52.516;13.460;2023-03-14T03:29:32;10.10;99.90
32502;DHT22;18952;52.516;13.460;2023-03-14T03:31:59;10.10;99.90
32502;DHT22;18952;52.516;13.460;2023-03-14T03:34:27;10.10;99.90
32502;DHT22;18952;52.516;13.460;2023-03-14T03:36:58;10.10;99.90
32502;DHT22;18952;52.516;13.460;2023-03-14T03:39:25;10.10;99.90
32502;DHT22;18952;52.516;13.460;2023-03-14T03:41:51;10.00;99.90
32502;DHT22;18952;52.516;13.460;2023-03-14T03:44:18;10.10;99.90
32502;DHT22;18952;52.516;13.460;2023-03-14T03:46:45;10.10;99.90
32502;DHT22;18952;52.516;13.460;2023-03-14T03:49:12;10.10;99.90
32502;DHT22;18952;52.516;13.460;2023-03-14T03:51:39;10.10;99.90
32502;DHT22;18952;52.516;13.460;2023-03-14T03:54:06;10.00;99.90
32502;DHT22;18952;52.516;13.460;2023-03-14T03:56:33;10.00;99.90
32502;DHT22;18952;52.516;13.460;2023-03-14T03:59:00;10.00;99.90
32502;DHT22;18952;52.516;13.460;2023-03-14T04:01:27;10.00;99.90
32502;DHT22;18952;52.516;13.460;2023-03-14T04:03:54;10.00;99.90
32502;DHT22;18952;52.516;13.460;2023-03-14T04:06:21;10.00;99.90
32502;DHT22;18952;52.516;13.460;2023-03-14T04:08:48;10.00;99.90
32502;DHT22;18952;52.516;13.460;2023-03-14T04:11:15;9.90;99.90
32502;DHT22;18952;52.516;13.460;2023-03-14T04:13:46;9.90;99.90
32502;DHT22;18952;52.516;13.460;2023-03-14T04:16:24;9.90;99.90
32502;DHT22;18952;52.516;13.460;2023-03-14T04:18:52;9.90;99.90
32502;DHT22;18952;52.516;13.460;2023-03-14T04:21:19;9.90;99.90
32502;DHT22;18952;52.516;13.460;2023-03-14T04:23:46;10.00;99.90
32502;DHT22;18952;52.516;13.460;2023-03-14T04:26:12;9.90;99.90
32502;DHT22;18952;52.516;13.460;2023-03-14T04:28:39;9.90;99.90
32502;DHT22;18952;52.516;13.460;2023-03-14T04:31:08;9.90;99.90
32502;DHT22;18952;52.516;13.460;2023-03-14T04:33:35;9.90;99.90
32502;DHT22;18952;52.516;13.460;2023-03-14T04:36:01;10.00;99.90
32502;DHT22;18952;52.516;13.460;2023-03-14T04:38:28;9.90;99.90
32502;DHT22;18952;52.516;13.460;2023-03-14T04:40:55;10.00;99.90
32502;DHT22;18952;52.516;13.460;2023-03-14T04:43:22;10.00;99.90
32502;DHT22;18952;52.516;13.460;2023-03-14T04:45:49;9.90;99.90
32502;DHT22;18952;52.516;13.460;2023-03-14T04:48:15;10.00;99.90
32502;DHT22;18952;52.516;13.460;2023-03-14T04:50:42;10.00;99.90
32502;DHT22;18952;52.516;13.460;2023-03-14T04:53:09;9.90;99.90
32502;DHT22;18952;52.516;13.460;2023-03-14T04:55:36;9.90;99.90
32502;DHT22;18952;52.516;13.460;2023-03-14T04:58:03;9.90;99.90
32502;DHT22;18952;52.516;13.460;2023-03-14T05:00:30;9.90;99.90
32502;DHT22;18952;52.516;13.460;2023-03-14T05:02:57;9.90;99.90
32502;DHT22;18952;52.516;13.460;2023-03-14T05:05:25;9.90;99.90
32502;DHT22;18952;52.516;13.460;2023-03-14T05:07:52;9.90;99.90
32502;DHT22;18952;52.516;13.460;2023-03-14T05:10:19;9.90;99.90
32502;DHT22;18952;52.516;13.460;2023-03-14T05:12:46;9.90;99.90
32502;DHT22;18952;52.516;13.460;2023-03-14T05:15:15;9.90;99.90
32502;DHT22;18952;52.516;13.460;2023-03-14T05:17:42;10.00;99.90
32502;DHT22;18952;52.516;13.460;2023-03-14T05:20:10;10.00;99.90
32502;DHT22;18952;52.516;13.460;2023-03-14T05:22:37;9.90;99.90
32502;DHT22;18952;52.516;13.460;2023-03-14T05:25:04;9.90;99.90
32502;DHT22;18952;52.516;13.460;2023-03-14T05:27:31;10.00;99.90
32502;DHT22;18952;52.516;13.460;2023-03-14T05:29:58;10.00;99.90
32502;DHT22;18952;52.516;13.460;2023-03-14T05:32:24;9.90;99.90
32502;DHT22;18952;52.516;13.460;2023-03-14T05:34:51;9.90;99.90
32502;DHT22;18952;52.516;13.460;2023-03-14T05:37:18;9.90;99.90
32502;DHT22;18952;52.516;13.460;2023-03-14T05:39:45;9.90;99.90
32502;DHT22;18952;52.516;13.460;2023-03-14T05:42:12;10.00;99.90
32502;DHT22;18952;52.516;13.460;2023-03-14T05:44:39;9.90;99.90
32502;DHT22;18952;52.516;13.460;2023-03-14T05:47:08;9.90;99.90
32502;DHT22;18952;52.516;13.460;2023-03-14T05:49:35;10.00;99.90
32502;DHT22;18952;52.516;13.460;2023-03-14T05:52:02;10.00;99.90
32502;DHT22;18952;52.516;13.460;2023-03-14T05:54:29;10.00;99.90
32502;DHT22;18952;52.516;13.460;2023-03-14T05:56:56;10.00;99.90
32502;DHT22;18952;52.516;13.460;2023-03-14T05:59:23;10.00;99.90
32502;DHT22;18952;52.516;13.460;2023-03-14T06:01:49;10.00;99.90
32502;DHT22;18952;52.516;13.460;2023-03-14T06:04:16;10.00;99.90
32502;DHT22;18952;52.516;13.460;2023-03-14T06:06:43;10.00;99.90
32502;DHT22;18952;52.516;13.460;2023-03-14T06:09:10;10.00;99.90
32502;DHT22;18952;52.516;13.460;2023-03-14T06:11:37;10.00;99.90
32502;DHT22;18952;52.516;13.460;2023-03-14T06:14:04;10.00;99.90
32502;DHT22;18952;52.516;13.460;2023-03-14T06:16:30;10.00;99.90
32502;DHT22;18952;52.516;13.460;2023-03-14T06:18:57;10.00;99.90
32502;DHT22;18952;52.516;13.460;2023-03-14T06:21:25;10.00;99.90
32502;DHT22;18952;52.516;13.460;2023-03-14T06:23:52;10.10;99.90
32502;DHT22;18952;52.516;13.460;2023-03-14T06:26:19;10.10;99.90
32502;DHT22;18952;52.516;13.460;2023-03-14T06:28:45;10.10;99.90
32502;DHT22;18952;52.516;13.460;2023-03-14T06:31:12;10.10;99.90
32502;DHT22;18952;52.516;13.460;2023-03-14T06:33:39;10.20;99.90
32502;DHT22;18952;52.516;13.460;2023-03-14T06:36:06;10.10;99.90
32502;DHT22;18952;52.516;13.460;2023-03-14T06:38:34;10.10;99.90
32502;DHT22;18952;52.516;13.460;2023-03-14T06:41:07;10.20;99.90
32502;DHT22;18952;52.516;13.460;2023-03-14T06:43:34;10.20;99.90
32502;DHT22;18952;52.516;13.460;2023-03-14T06:46:03;10.20;99.90
32502;DHT22;18952;52.516;13.460;2023-03-14T06:48:33;10.20;99.90
32502;DHT22;18952;52.516;13.460;2023-03-14T06:50:59;10.30;99.90
32502;DHT22;18952;52.516;13.460;2023-03-14T06:53:26;10.30;99.90
32502;DHT22;18952;52.516;13.460;2023-03-14T06:55:53;10.30;99.90
32502;DHT22;18952;52.516;13.460;2023-03-14T06:58:20;10.30;99.90
32502;DHT22;18952;52.516;13.460;2023-03-14T07:00:50;10.30;99.90
32502;DHT22;18952;52.516;13.460;2023-03-14T07:03:17;10.40;99.90
32502;DHT22;18952;52.516;13.460;2023-03-14T07:05:43;10.40;99.90
32502;DHT22;18952;52.516;13.460;2023-03-14T07:08:10;10.40;99.90
32502;DHT22;18952;52.516;13.460;2023-03-14T07:10:37;10.50;99.90
32502;DHT22;18952;52.516;13.460;2023-03-14T07:13:04;10.50;99.90
32502;DHT22;18952;52.516;13.460;2023-03-14T07:15:31;10.50;99.90
32502;DHT22;18952;52.516;13.460;2023-03-14T07:17:58;10.60;99.90
32502;DHT22;18952;52.516;13.460;2023-03-14T07:20:25;10.50;99.90
32502;DHT22;18952;52.516;13.460;2023-03-14T07:22:52;10.50;99.90
32502;DHT22;18952;52.516;13.460;2023-03-14T07:25:18;10.50;99.90
32502;DHT22;18952;52.516;13.460;2023-03-14T07:27:46;10.50;99.90
32502;DHT22;18952;52.516;13.460;2023-03-14T07:30:14;10.40;99.90
32502;DHT22;18952;52.516;13.460;2023-03-14T07:32:41;10.40;99.90
32502;DHT22;18952;52.516;13.460;2023-03-14T07:35:08;10.40;99.90
32502;DHT22;18952;52.516;13.460;2023-03-14T07:37:35;10.50;99.90
32502;DHT22;18952;52.516;13.460;2023-03-14T07:40:02;10.50;99.90
32502;DHT22;18952;52.516;13.460;2023-03-14T07:42:29;10.50;99.90
32502;DHT22;18952;52.516;13.460;2023-03-14T07:44:58;10.50;99.90
32502;DHT22;18952;52.516;13.460;2023-03-14T07:47:25;10.50;99.90
32502;DHT22;18952;52.516;13.460;2023-03-14T07:49:52;10.40;99.90
32502;DHT22;18952;52.516;13.460;2023-03-14T07:52:19;10.40;99.90
32502;DHT22;18952;52.516;13.460;2023-03-14T07:54:45;10.40;99.90
32502;DHT22;18952;52.516;13.460;2023-03-14T07:57:12;10.40;99.90
32502;DHT22;18952;52.516;13.460;2023-03-14T07:59:39;10.40;99.90
32502;DHT22;18952;52.516;13.460;2023-03-14T08:02:12;10.40;99.90
32502;DHT22;18952;52.516;13.460;2023-03-14T08:04:39;10.40;99.90
32502;DHT22;18952;52.516;13.460;2023-03-14T08:07:06;10.40;99.90
32502;DHT22;18952;52.516;13.460;2023-03-14T08:09:33;10.40;99.90
32502;DHT22;18952;52.516;13.460;2023-03-14T08:12:00;10.40;99.90
32502;DHT22;18952;52.516;13.460;2023-03-14T08:14:27;10.50;99.90
32502;DHT22;18952;52.516;13.460;2023-03-14T08:16:54;10.60;99.90
32502;DHT22;18952;52.516;13.460;2023-03-14T08:19:23;10.60;99.90
32502;DHT22;18952;52.516;13.460;2023-03-14T08:21:50;10.70;99.90
32502;DHT22;18952;52.516;13.460;2023-03-14T08:24:17;10.80;99.90
32502;DHT22;18952;52.516;13.460;2023-03-14T08:26:44;10.90;99.90
32502;DHT22;18952;52.516;13.460;2023-03-14T08:29:10;10.90;99.90
32502;DHT22;18952;52.516;13.460;2023-03-14T08:31:37;11.00;99.90
32502;DHT22;18952;52.516;13.460;2023-03-14T08:34:04;11.10;99.90
32502;DHT22;18952;52.516;13.460;2023-03-14T08:36:31;11.10;99.90
32502;DHT22;18952;52.516;13.460;2023-03-14T08:38:58;11.10;99.90
32502;DHT22;18952;52.516;13.460;2023-03-14T08:41:25;11.20;99.90
32502;DHT22;18952;52.516;13.460;2023-03-14T08:43:52;11.30;99.90
32502;DHT22;18952;52.516;13.460;2023-03-14T08:46:19;11.30;99.90
32502;DHT22;18952;52.516;13.460;2023-03-14T08:48:47;11.30;99.90
32502;DHT22;18952;52.516;13.460;2023-03-14T08:51:14;11.30;99.90
32502;DHT22;18952;52.516;13.460;2023-03-14T08:53:41;11.30;99.90
32502;DHT22;18952;52.516;13.460;2023-03-14T08:56:09;11.40;99.90
32502;DHT22;18952;52.516;13.460;2023-03-14T08:58:37;11.30;99.90
32502;DHT22;18952;52.516;13.460;2023-03-14T09:01:05;11.40;99.90
32502;DHT22;18952;52.516;13.460;2023-03-14T09:03:32;11.40;99.90
32502;DHT22;18952;52.516;13.460;2023-03-14T09:06:11;11.40;99.90
32502;DHT22;18952;52.516;13.460;2023-03-14T09:08:38;11.40;99.90
32502;DHT22;18952;52.516;13.460;2023-03-14T09:11:08;11.40;99.90
32502;DHT22;18952;52.516;13.460;2023-03-14T09:13:36;11.40;99.90
32502;DHT22;18952;52.516;13.460;2023-03-14T09:16:04;11.50;99.90
32502;DHT22;18952;52.516;13.460;2023-03-14T09:18:31;11.50;99.90
32502;DHT22;18952;52.516;13.460;2023-03-14T09:20:58;11.60;99.90
32502;DHT22;18952;52.516;13.460;2023-03-14T09:23:25;11.70;99.90
32502;DHT22;18952;52.516;13.460;2023-03-14T09:25:58;11.90;99.90
32502;DHT22;18952;52.516;13.460;2023-03-14T09:28:26;11.80;99.90
32502;DHT22;18952;52.516;13.460;2023-03-14T09:30:53;11.70;99.90
32502;DHT22;18952;52.516;13.460;2023-03-14T09:33:20;11.70;99.90
32502;DHT22;18952;52.516;13.460;2023-03-14T09:35:48;11.60;99.90
32502;DHT22;18952;52.516;13.460;2023-03-14T09:38:15;11.60;99.90
32502;DHT22;18952;52.516;13.460;2023-03-14T09:40:41;11.60;99.90
32502;DHT22;18952;52.516;13.460;2023-03-14T09:43:11;11.60;99.90
32502;DHT22;18952;52.516;13.460;2023-03-14T09:45:41;11.70;99.90
32502;DHT22;18952;52.516;13.460;2023-03-14T09:48:21;11.90;99.90
32502;DHT22;18952;52.516;13.460;2023-03-14T09:50:51;12.00;99.90
32502;DHT22;18952;52.516;13.460;2023-03-14T09:53:28;12.10;99.90
32502;DHT22;18952;52.516;13.460;2023-03-14T09:56:01;12.10;99.90
32502;DHT22;18952;52.516;13.460;2023-03-14T09:58:29;12.10;99.90
32502;DHT22;18952;52.516;13.460;2023-03-14T10:00:57;12.10;99.90
32502;DHT22;18952;52.516;13.460;2023-03-14T10:03:29;12.10;99.90
32502;DHT22;18952;52.516;13.460;2023-03-14T10:05:58;12.10;99.90
32502;DHT22;18952;52.516;13.460;2023-03-14T10:08:25;12.20;99.90
32502;DHT22;18952;52.516;13.460;2023-03-14T10:10:52;12.20;99.90
32502;DHT22;18952;52.516;13.460;2023-03-14T10:13:22;12.10;99.90
32502;DHT22;18952;52.516;13.460;2023-03-14T10:15:53;12.10;99.90
32502;DHT22;18952;52.516;13.460;2023-03-14T10:18:22;12.10;99.90
32502;DHT22;18952;52.516;13.460;2023-03-14T10:21:01;12.20;99.90
32502;DHT22;18952;52.516;13.460;2023-03-14T10:23:30;12.20;99.90
32502;DHT22;18952;52.516;13.460;2023-03-14T10:28:30;12.10;99.90
32502;DHT22;18952;52.516;13.460;2023-03-14T10:30:58;12.10;99.90
32502;DHT22;18952;52.516;13.460;2023-03-14T10:33:27;12.10;99.90
32502;DHT22;18952;52.516;13.460;2023-03-14T10:35:59;12.20;99.90
32502;DHT22;18952;52.516;13.460;2023-03-14T10:38:32;12.20;99.90
32502;DHT22;18952;52.516;13.460;2023-03-14T10:40:59;12.30;99.90
32502;DHT22;18952;52.516;13.460;2023-03-14T10:43:32;12.20;99.90
32502;DHT22;18952;52.516;13.460;2023-03-14T10:46:09;12.30;99.90
32502;DHT22;18952;52.516;13.460;2023-03-14T10:48:38;12.30;99.90
32502;DHT22;18952;52.516;13.460;2023-03-14T10:51:06;12.30;99.90
32502;DHT22;18952;52.516;13.460;2023-03-14T10:56:35;12.20;99.90
32502;DHT22;18952;52.516;13.460;2023-03-14T10:59:03;12.30;99.90
32502;DHT22;18952;52.516;13.460;2023-03-14T11:07:42;12.20;99.90
32502;DHT22;18952;52.516;13.460;2023-03-14T11:10:19;12.20;99.90
32502;DHT22;18952;52.516;13.460;2023-03-14T11:23:26;12.40;99.90
32502;DHT22;18952;52.516;13.460;2023-03-14T11:28:56;12.40;99.90
32502;DHT22;18952;52.516;13.460;2023-03-14T11:31:28;12.40;99.90
32502;DHT22;18952;52.516;13.460;2023-03-14T11:34:16;12.40;99.90
32502;DHT22;18952;52.516;13.460;2023-03-14T11:36:53;12.40;99.90
32502;DHT22;18952;52.516;13.460;2023-03-14T11:39:24;12.40;99.90
32502;DHT22;18952;52.516;13.460;2023-03-14T11:41:57;12.30;99.90
32502;DHT22;18952;52.516;13.460;2023-03-14T11:44:38;12.30;99.90
32502;DHT22;18952;52.516;13.460;2023-03-14T11:47:25;12.30;99.90
32502;DHT22;18952;52.516;13.460;2023-03-14T11:50:16;12.40;99.90
32502;DHT22;18952;52.516;13.460;2023-03-14T11:55:26;12.30;99.90
32502;DHT22;18952;52.516;13.460;2023-03-14T11:58:00;12.30;99.90
32502;DHT22;18952;52.516;13.460;2023-03-14T12:00:29;12.30;99.90
32502;DHT22;18952;52.516;13.460;2023-03-14T12:03:53;12.30;99.90
32502;DHT22;18952;52.516;13.460;2023-03-14T12:08:46;12.30;99.90
32502;DHT22;18952;52.516;13.460;2023-03-14T12:11:18;12.30;99.90
32502;DHT22;18952;52.516;13.460;2023-03-14T12:13:51;12.30;99.90
32502;DHT22;18952;52.516;13.460;2023-03-14T12:16:33;12.30;99.90
32502;DHT22;18952;52.516;13.460;2023-03-14T12:19:27;12.30;99.90
32502;DHT22;18952;52.516;13.460;2023-03-14T12:24:45;12.40;99.90
32502;DHT22;18952;52.516;13.460;2023-03-14T12:27:40;12.40;99.90
32502;DHT22;18952;52.516;13.460;2023-03-14T12:30:39;12.40;99.90
32502;DHT22;18952;52.516;13.460;2023-03-14T12:35:45;12.40;99.90
32502;DHT22;18952;52.516;13.460;2023-03-14T12:41:06;12.40;99.90
32502;DHT22;18952;52.516;13.460;2023-03-14T12:43:38;12.40;99.90
32502;DHT22;18952;52.516;13.460;2023-03-14T12:46:37;12.40;99.90
32502;DHT22;18952;52.516;13.460;2023-03-14T12:49:08;12.50;99.90
32502;DHT22;18952;52.516;13.460;2023-03-14T12:51:38;12.50;99.90
32502;DHT22;18952;52.516;13.460;2023-03-14T12:57:10;12.50;99.90
32502;DHT22;18952;52.516;13.460;2023-03-14T13:00:00;12.60;99.90
32502;DHT22;18952;52.516;13.460;2023-03-14T13:02:29;12.60;99.90
32502;DHT22;18952;52.516;13.460;2023-03-14T13:12:38;12.40;99.90
32502;DHT22;18952;52.516;13.460;2023-03-14T13:15:33;12.30;99.90
32502;DHT22;18952;52.516;13.460;2023-03-14T13:18:38;12.20;99.90
32502;DHT22;18952;52.516;13.460;2023-03-14T13:24:02;12.00;99.90
32502;DHT22;18952;52.516;13.460;2023-03-14T13:26:35;11.80;99.90
32502;DHT22;18952;52.516;13.460;2023-03-14T13:29:19;11.50;99.90
32502;DHT22;18952;52.516;13.460;2023-03-14T13:31:49;11.40;99.90
32502;DHT22;18952;52.516;13.460;2023-03-14T13:34:16;11.30;99.90
32502;DHT22;18952;52.516;13.460;2023-03-14T13:36:43;11.30;99.90
32502;DHT22;18952;52.516;13.460;2023-03-14T13:39:17;11.60;99.90
32502;DHT22;18952;52.516;13.460;2023-03-14T13:41:46;12.00;99.90
32502;DHT22;18952;52.516;13.460;2023-03-14T13:44:26;12.40;99.90
32502;DHT22;18952;52.516;13.460;2023-03-14T13:46:58;12.70;99.90
32502;DHT22;18952;52.516;13.460;2023-03-14T13:49:27;13.00;99.90
32502;DHT22;18952;52.516;13.460;2023-03-14T13:51:54;13.40;99.90
32502;DHT22;18952;52.516;13.460;2023-03-14T13:54:22;13.70;99.90
32502;DHT22;18952;52.516;13.460;2023-03-14T13:56:59;13.70;99.90
32502;DHT22;18952;52.516;13.460;2023-03-14T13:59:31;13.80;99.90
32502;DHT22;18952;52.516;13.460;2023-03-14T14:02:01;13.80;99.90
32502;DHT22;18952;52.516;13.460;2023-03-14T14:04:33;14.00;99.90
32502;DHT22;18952;52.516;13.460;2023-03-14T14:07:08;14.10;99.90
32502;DHT22;18952;52.516;13.460;2023-03-14T14:09:39;13.90;99.90
32502;DHT22;18952;52.516;13.460;2023-03-14T14:12:10;13.70;99.90
32502;DHT22;18952;52.516;13.460;2023-03-14T14:14:52;13.70;99.90
32502;DHT22;18952;52.516;13.460;2023-03-14T14:17:36;13.80;99.90
32502;DHT22;18952;52.516;13.460;2023-03-14T14:20:07;13.60;99.90
32502;DHT22;18952;52.516;13.460;2023-03-14T14:22:35;13.40;99.90
32502;DHT22;18952;52.516;13.460;2023-03-14T14:25:03;13.40;99.90
32502;DHT22;18952;52.516;13.460;2023-03-14T14:27:38;13.40;99.90
32502;DHT22;18952;52.516;13.460;2023-03-14T14:30:27;13.70;99.90
32502;DHT22;18952;52.516;13.460;2023-03-14T14:33:17;13.70;99.90
32502;DHT22;18952;52.516;13.460;2023-03-14T14:35:59;13.60;99.90
32502;DHT22;18952;52.516;13.460;2023-03-14T14:38:28;13.50;99.90
32502;DHT22;18952;52.516;13.460;2023-03-14T14:40:59;13.20;99.90
32502;DHT22;18952;52.516;13.460;2023-03-14T14:43:29;13.10;99.90
32502;DHT22;18952;52.516;13.460;2023-03-14T14:45:57;13.00;99.90
32502;DHT22;18952;52.516;13.460;2023-03-14T14:48:26;13.00;99.90
32502;DHT22;18952;52.516;13.460;2023-03-14T14:50:56;13.00;99.90
32502;DHT22;18952;52.516;13.460;2023-03-14T14:53:28;13.10;99.90
32502;DHT22;18952;52.516;13.460;2023-03-14T14:56:03;13.00;99.90
32502;DHT22;18952;52.516;13.460;2023-03-14T14:58:40;12.90;99.90
32502;DHT22;18952;52.516;13.460;2023-03-14T15:01:17;12.80;99.90
32502;DHT22;18952;52.516;13.460;2023-03-14T15:03:49;12.80;99.90
32502;DHT22;18952;52.516;13.460;2023-03-14T15:06:21;12.70;99.90
32502;DHT22;18952;52.516;13.460;2023-03-14T15:08:52;12.70;99.90
32502;DHT22;18952;52.516;13.460;2023-03-14T15:11:29;12.60;99.90
32502;DHT22;18952;52.516;13.460;2023-03-14T15:13:57;12.50;99.90
32502;DHT22;18952;52.516;13.460;2023-03-14T15:16:28;12.50;99.90
32502;DHT22;18952;52.516;13.460;2023-03-14T15:18:57;12.40;99.90
32502;DHT22;18952;52.516;13.460;2023-03-14T15:21:32;12.30;99.90
32502;DHT22;18952;52.516;13.460;2023-03-14T15:23:59;12.30;99.90
32502;DHT22;18952;52.516;13.460;2023-03-14T15:26:27;12.00;99.90
32502;DHT22;18952;52.516;13.460;2023-03-14T15:28:54;10.20;99.90
32502;DHT22;18952;52.516;13.460;2023-03-14T15:31:22;8.40;99.90
32502;DHT22;18952;52.516;13.460;2023-03-14T15:33:51;7.40;99.90
32502;DHT22;18952;52.516;13.460;2023-03-14T15:36:25;6.70;99.90
32502;DHT22;18952;52.516;13.460;2023-03-14T15:38:53;6.40;99.90
32502;DHT22;18952;52.516;13.460;2023-03-14T15:41:21;6.10;99.90
32502;DHT22;18952;52.516;13.460;2023-03-14T15:43:49;5.90;99.90
32502;DHT22;18952;52.516;13.460;2023-03-14T15:46:16;5.70;99.90
32502;DHT22;18952;52.516;13.460;2023-03-14T15:48:47;5.50;99.90
32502;DHT22;18952;52.516;13.460;2023-03-14T15:51:15;5.30;99.90
32502;DHT22;18952;52.516;13.460;2023-03-14T15:53:42;5.10;99.90
32502;DHT22;18952;52.516;13.460;2023-03-14T15:56:14;5.10;99.90
32502;DHT22;18952;52.516;13.460;2023-03-14T15:58:41;4.80;99.90
32502;DHT22;18952;52.516;13.460;2023-03-14T16:01:08;4.40;99.90
32502;DHT22;18952;52.516;13.460;2023-03-14T16:03:35;4.10;99.90
32502;DHT22;18952;52.516;13.460;2023-03-14T16:06:03;3.70;99.90
32502;DHT22;18952;52.516;13.460;2023-03-14T16:08:30;3.40;99.90
32502;DHT22;18952;52.516;13.460;2023-03-14T16:10:59;3.20;99.90
32502;DHT22;18952;52.516;13.460;2023-03-14T16:13:26;3.00;99.90
32502;DHT22;18952;52.516;13.460;2023-03-14T16:16:01;2.80;99.90
32502;DHT22;18952;52.516;13.460;2023-03-14T16:18:29;2.60;99.90
32502;DHT22;18952;52.516;13.460;2023-03-14T16:21:01;2.30;99.90
32502;DHT22;18952;52.516;13.460;2023-03-14T16:23:29;2.00;99.90
32502;DHT22;18952;52.516;13.460;2023-03-14T16:25:56;1.80;99.90
32502;DHT22;18952;52.516;13.460;2023-03-14T16:28:25;1.70;99.90
32502;DHT22;18952;52.516;13.460;2023-03-14T16:31:06;1.60;99.90
32502;DHT22;18952;52.516;13.460;2023-03-14T16:33:34;1.50;99.90
32502;DHT22;18952;52.516;13.460;2023-03-14T16:36:04;1.40;99.90
32502;DHT22;18952;52.516;13.460;2023-03-14T16:38:32;1.40;99.90
32502;DHT22;18952;52.516;13.460;2023-03-14T16:41:03;1.30;99.90